createdAt,value
2019-01-22T00:00:56.752Z,0.50
2019-01-22T00:03:26.452Z,0.50
2019-01-22T00:05:56.210Z,0.50
2019-01-22T00:08:25.972Z,0.50
2019-01-22T00:10:55.799Z,0.50
2019-01-22T00:13:25.849Z,0.60
2019-01-22T00:15:55.563Z,0.60
2019-01-22T00:18:25.299Z,0.60
2019-01-22T00:20:54.964Z,0.60
2019-01-22T00:23:25.816Z,0.70
2019-01-22T00:25:55.527Z,0.70
2019-01-22T00:28:25.528Z,0.60
2019-01-22T00:30:55.295Z,0.60
2019-01-22T00:33:24.917Z,0.60
2019-01-22T00:35:55.120Z,0.60
2019-01-22T00:38:25.286Z,0.60
2019-01-22T00:40:55.216Z,0.60
2019-01-22T00:43:24.977Z,0.60
2019-01-22T00:45:55.109Z,0.50
2019-01-22T00:48:25.395Z,1.70
2019-01-22T00:50:55.208Z,0.50
2019-01-22T00:53:24.958Z,0.40
2019-01-22T00:55:53.741Z,0.40
2019-01-22T00:58:22.449Z,0.30
2019-01-22T01:00:51.124Z,0.30
2019-01-22T01:03:20.092Z,0.30
2019-01-22T01:05:48.733Z,0.20
2019-01-22T01:08:17.694Z,0.10
2019-01-22T01:10:46.407Z,0.10
2019-01-22T01:13:15.410Z,0.00
2019-01-22T01:15:44.574Z,0.00
2019-01-22T01:18:13.426Z,0.00
2019-01-22T01:20:42.297Z,-0.10
2019-01-22T01:23:16.788Z,-0.10
2019-01-22T01:25:41.296Z,-0.10
2019-01-22T01:28:09.954Z,-0.10
2019-01-22T01:30:38.895Z,-0.10
2019-01-22T01:33:07.625Z,-0.20
2019-01-22T01:35:36.311Z,-0.20
2019-01-22T01:38:04.929Z,-0.20
2019-01-22T01:40:33.643Z,-0.30
2019-01-22T01:43:02.571Z,-0.30
2019-01-22T01:45:31.848Z,-0.30
2019-01-22T01:48:00.499Z,-0.30
2019-01-22T01:50:29.201Z,-0.40
2019-01-22T01:52:58.095Z,-0.30
2019-01-22T01:55:26.869Z,-0.30
2019-01-22T01:57:55.520Z,-0.30
2019-01-22T02:00:24.278Z,-0.40
2019-01-22T02:02:52.933Z,-0.40
2019-01-22T02:05:21.993Z,-0.40
2019-01-22T02:07:50.653Z,-0.40
2019-01-22T02:10:20.542Z,-0.40
2019-01-22T02:13:03.648Z,-0.50
2019-01-22T02:15:34.831Z,-0.50
2019-01-22T02:18:35.201Z,-0.50
2019-01-22T02:21:16.568Z,-0.50
2019-01-22T02:24:07.475Z,-0.50
2019-01-22T02:26:55.334Z,-0.60
2019-01-22T02:29:27.014Z,-0.60
2019-01-22T02:31:58.500Z,-0.60
2019-01-22T02:34:48.616Z,-0.60
2019-01-22T02:37:24.567Z,-0.70
2019-01-22T02:40:21.612Z,-0.80
2019-01-22T02:43:05.014Z,-0.80
2019-01-22T02:46:05.283Z,-0.90
2019-01-22T02:48:38.240Z,-0.90
2019-01-22T02:51:44.241Z,-1.00
2019-01-22T02:54:33.984Z,-1.10
2019-01-22T02:57:24.705Z,-1.20
2019-01-22T03:00:11.583Z,-1.20
2019-01-22T03:02:56.356Z,-1.30
2019-01-22T03:05:37.610Z,-1.40
2019-01-22T03:08:23.087Z,-1.50
2019-01-22T03:10:55.656Z,-1.60
2019-01-22T03:13:30.494Z,-1.70
2019-01-22T03:16:15.926Z,-1.80
2019-01-22T03:18:57.251Z,-1.80
2019-01-22T03:21:49.708Z,-1.90
2019-01-22T03:24:32.324Z,-2.00
2019-01-22T03:27:18.809Z,-2.10
2019-01-22T03:29:51.907Z,-2.20
2019-01-22T03:32:34.622Z,-2.30
2019-01-22T03:35:22.486Z,-2.30
2019-01-22T03:38:03.874Z,-2.40
2019-01-22T03:40:36.350Z,-2.40
2019-01-22T03:43:36.203Z,-2.50
2019-01-22T03:46:08.195Z,-2.60
2019-01-22T03:49:07.925Z,-2.60
2019-01-22T03:51:56.182Z,-2.70
2019-01-22T03:54:42.846Z,-2.70
2019-01-22T03:57:15.139Z,-2.70
2019-01-22T03:59:43.796Z,-2.80
2019-01-22T04:02:12.769Z,-2.90
2019-01-22T04:04:41.509Z,-2.90
2019-01-22T04:07:10.179Z,-3.00
2019-01-22T04:09:50.144Z,-3.00
2019-01-22T04:12:18.887Z,-3.10
2019-01-22T04:14:47.618Z,-3.10
2019-01-22T04:17:16.754Z,-3.20
2019-01-22T04:19:45.465Z,-3.20
2019-01-22T04:22:17.506Z,-3.20
2019-01-22T04:24:55.545Z,-3.20
2019-01-22T04:27:43.472Z,-3.30
2019-01-22T04:30:43.846Z,-3.30
2019-01-22T04:33:19.252Z,-3.40
2019-01-22T04:36:05.807Z,-3.30
2019-01-22T04:38:38.029Z,-3.40
2019-01-22T04:41:11.246Z,-3.40
2019-01-22T04:43:54.404Z,-3.40
2019-01-22T04:46:37.991Z,-3.40
2019-01-22T04:49:13.866Z,-3.50
2019-01-22T04:52:05.000Z,-3.50
2019-01-22T04:55:05.410Z,-3.50
2019-01-22T04:57:39.964Z,-3.60
2019-01-22T05:00:26.481Z,-3.60
2019-01-22T05:03:14.967Z,-3.60
2019-01-22T05:05:59.149Z,-3.70
2019-01-22T05:08:59.129Z,-3.60
2019-01-22T05:11:36.099Z,-3.70
2019-01-22T05:14:26.801Z,-3.70
2019-01-22T05:17:15.095Z,-3.70
2019-01-22T05:20:01.453Z,-3.70
2019-01-22T05:22:49.337Z,-3.80
2019-01-22T05:25:40.523Z,-3.80
2019-01-22T05:28:15.989Z,-3.80
2019-01-22T05:31:02.431Z,-3.80
2019-01-22T05:34:05.570Z,-3.90
2019-01-22T05:36:53.425Z,-3.90
2019-01-22T05:39:33.705Z,-3.90
2019-01-22T05:42:10.876Z,-4.00
2019-01-22T05:44:58.703Z,-4.00
2019-01-22T05:47:35.519Z,-4.00
2019-01-22T05:50:41.902Z,-4.00
2019-01-22T05:53:29.728Z,-4.00
2019-01-22T05:56:02.120Z,-4.00
2019-01-22T05:58:58.964Z,-4.00
2019-01-22T06:01:36.853Z,-4.00
2019-01-22T06:04:15.387Z,-4.10
2019-01-22T06:06:52.555Z,-4.10
2019-01-22T06:09:35.103Z,-4.10
2019-01-22T06:12:08.870Z,-4.10
2019-01-22T06:14:55.466Z,-4.20
2019-01-22T06:17:46.301Z,-2.60
2019-01-22T06:20:25.061Z,-4.10
2019-01-22T06:23:19.711Z,-4.10
2019-01-22T06:26:06.394Z,-4.20
2019-01-22T06:28:53.157Z,-4.20
2019-01-22T06:31:36.721Z,-4.20
2019-01-22T06:34:33.772Z,-4.20
2019-01-22T06:37:30.767Z,-4.30
2019-01-22T06:40:06.169Z,-4.30
2019-01-22T06:42:37.959Z,-4.30
2019-01-22T06:45:31.937Z,-4.40
2019-01-22T06:48:13.205Z,-4.40
2019-01-22T06:51:03.206Z,-4.40
2019-01-22T06:53:39.422Z,-4.40
2019-01-22T06:56:26.106Z,-4.40
2019-01-22T06:59:13.074Z,-4.40
2019-01-22T07:02:12.975Z,-4.40
2019-01-22T07:04:53.224Z,-4.40
2019-01-22T07:07:35.860Z,-4.40
2019-01-22T07:10:13.725Z,-4.40
2019-01-22T07:12:55.535Z,-4.40
2019-01-22T07:15:34.201Z,-4.40
2019-01-22T07:18:15.973Z,-4.40
2019-01-22T07:20:58.182Z,-4.40
2019-01-22T07:23:44.977Z,-4.40
2019-01-22T07:26:31.532Z,-4.40
2019-01-22T07:29:25.237Z,-4.30
2019-01-22T07:32:08.441Z,-4.20
2019-01-22T07:34:58.806Z,-4.20
2019-01-22T07:37:53.222Z,-4.10
2019-01-22T07:40:53.528Z,-4.10
2019-01-22T07:46:44.186Z,-4.00
2019-01-22T07:49:38.038Z,-3.90
2019-01-22T07:52:35.090Z,-3.90
2019-01-22T07:55:06.776Z,-3.80
2019-01-22T07:57:53.076Z,-3.70
2019-01-22T08:00:29.768Z,-3.60
2019-01-22T08:03:40.050Z,-3.60
2019-01-22T08:06:20.739Z,-3.50
2019-01-22T08:09:08.599Z,-3.40
2019-01-22T08:11:46.918Z,-3.30
2019-01-22T08:14:23.726Z,-3.20
2019-01-22T08:17:11.578Z,-3.20
2019-01-22T08:20:05.321Z,-3.00
2019-01-22T08:22:54.055Z,-2.20
2019-01-22T08:25:51.929Z,-0.10
2019-01-22T08:28:48.918Z,2.30
2019-01-22T08:31:54.403Z,3.70
2019-01-22T08:35:14.701Z,3.80
2019-01-22T08:38:01.248Z,2.40
2019-01-22T08:40:51.935Z,0.90
2019-01-22T08:43:36.680Z,2.60
2019-01-22T08:46:38.215Z,4.50
2019-01-22T08:49:56.125Z,5.40
2019-01-22T08:52:52.185Z,6.60
2019-01-22T08:55:57.611Z,8.00
2019-01-22T08:58:58.093Z,8.70
2019-01-22T09:02:15.332Z,8.90
2019-01-22T09:05:34.032Z,8.10
2019-01-22T09:08:19.186Z,5.70
2019-01-22T09:11:41.072Z,5.90
2019-01-22T09:14:37.166Z,6.40
2019-01-22T09:17:44.054Z,7.40
2019-01-22T09:20:37.904Z,7.80
2019-01-22T09:23:34.995Z,7.00
2019-01-22T09:26:47.300Z,6.80
2019-01-22T09:29:42.196Z,7.50
2019-01-22T09:32:57.365Z,8.40
2019-01-22T09:36:14.951Z,9.30
2019-01-22T09:38:44.794Z,10.20
2019-01-22T09:41:14.470Z,10.50
2019-01-22T09:43:44.317Z,10.20
2019-01-22T09:46:14.203Z,10.20
2019-01-22T09:48:43.934Z,10.10
2019-01-22T09:51:13.715Z,10.10
2019-01-22T09:53:44.049Z,9.30
2019-01-22T09:56:13.818Z,9.10
2019-01-22T09:58:43.534Z,9.50
2019-01-22T10:01:13.234Z,9.70
2019-01-22T10:03:42.993Z,10.20
2019-01-22T10:06:12.682Z,10.10
2019-01-22T10:08:42.370Z,10.90
2019-01-22T10:11:12.518Z,11.90
2019-01-22T10:13:48.037Z,13.10
2019-01-22T10:16:12.551Z,12.30
2019-01-22T10:18:41.171Z,12.60
2019-01-22T10:21:10.846Z,12.00
2019-01-22T10:23:40.485Z,11.10
2019-01-22T10:26:10.015Z,10.30
2019-01-22T10:28:39.891Z,10.30
2019-01-22T10:31:09.500Z,10.60
2019-01-22T10:33:39.058Z,11.00
2019-01-22T10:36:08.703Z,9.70
2019-01-22T10:38:38.339Z,7.60
2019-01-22T10:41:07.908Z,8.00
2019-01-22T10:43:37.505Z,9.10
2019-01-22T10:46:07.078Z,9.40
2019-01-22T10:48:36.588Z,9.70
2019-01-22T10:51:06.576Z,9.50
2019-01-22T10:53:36.312Z,8.40
2019-01-22T10:56:06.003Z,8.40
2019-01-22T10:58:35.541Z,9.10
2019-01-22T11:01:05.408Z,9.50
2019-01-22T11:03:35.295Z,9.40
2019-01-22T11:06:04.993Z,9.00
2019-01-22T11:08:34.593Z,8.50
2019-01-22T11:11:04.248Z,7.80
2019-01-22T11:13:33.878Z,9.20
2019-01-22T11:16:03.517Z,9.30
2019-01-22T11:18:33.475Z,9.60
2019-01-22T11:21:02.996Z,8.50
2019-01-22T11:23:32.563Z,8.00
2019-01-22T11:26:02.234Z,7.90
2019-01-22T11:28:31.828Z,8.50
2019-01-22T11:31:00.559Z,8.20
2019-01-22T11:33:33.341Z,7.20
2019-01-22T11:35:59.435Z,7.50
2019-01-22T11:38:28.088Z,6.30
2019-01-22T11:40:56.736Z,5.40
2019-01-22T11:43:26.390Z,4.30
2019-01-22T11:45:55.998Z,3.60
2019-01-22T11:48:25.568Z,3.20
2019-01-22T11:50:55.145Z,3.20
2019-01-22T11:53:23.811Z,3.40
2019-01-22T11:55:53.266Z,3.30
2019-01-22T11:58:22.875Z,2.80
2019-01-22T12:00:55.838Z,2.50
2019-01-22T12:03:24.495Z,2.30
2019-01-22T12:05:53.362Z,2.10
2019-01-22T12:08:22.146Z,2.10
2019-01-22T12:10:51.661Z,2.00
2019-01-22T12:13:21.246Z,1.80
2019-01-22T12:15:50.808Z,1.70
2019-01-22T12:18:20.319Z,1.60
2019-01-22T12:20:50.071Z,1.50
2019-01-22T12:23:19.604Z,1.60
2019-01-22T12:25:49.106Z,1.70
2019-01-22T12:28:18.682Z,1.70
2019-01-22T12:30:48.260Z,1.70
2019-01-22T12:33:17.868Z,1.80
2019-01-22T12:35:47.506Z,1.70
2019-01-22T12:38:17.137Z,1.70
2019-01-22T12:40:46.775Z,1.70
2019-01-22T12:43:16.492Z,1.70
2019-01-22T12:45:46.073Z,1.90
2019-01-22T12:48:14.764Z,1.90
2019-01-22T12:50:43.639Z,1.80
2019-01-22T12:53:12.736Z,1.80
2019-01-22T12:55:41.348Z,1.80
2019-01-22T12:58:11.741Z,1.70
2019-01-22T13:00:40.311Z,1.70
2019-01-22T13:03:09.137Z,1.80
2019-01-22T13:05:48.695Z,1.90
2019-01-22T13:08:17.356Z,2.00
2019-01-22T13:10:45.913Z,1.90
2019-01-22T13:13:20.915Z,1.90
2019-01-22T13:15:49.573Z,1.90
2019-01-22T13:18:18.150Z,1.80
2019-01-22T13:20:46.957Z,1.90
2019-01-22T13:23:15.552Z,1.90
2019-01-22T13:25:44.260Z,1.90
2019-01-22T13:28:12.869Z,1.90
2019-01-22T13:30:43.819Z,2.00
2019-01-22T13:33:12.350Z,1.80
2019-01-22T13:35:42.670Z,1.70
2019-01-22T13:38:11.249Z,1.60
2019-01-22T13:40:39.887Z,1.60
2019-01-22T13:43:08.768Z,1.60
2019-01-22T13:45:37.475Z,1.40
2019-01-22T13:48:06.921Z,1.30
2019-01-22T13:50:35.584Z,1.20
2019-01-22T13:53:10.134Z,1.10
2019-01-22T13:55:38.767Z,1.00
2019-01-22T13:58:07.439Z,0.90
2019-01-22T14:00:36.072Z,0.90
2019-01-22T14:03:05.239Z,0.90
2019-01-22T14:05:34.039Z,0.90
2019-01-22T14:08:02.542Z,0.80
2019-01-22T14:10:31.119Z,0.80
2019-01-22T14:12:59.778Z,0.80
2019-01-22T14:15:29.574Z,0.70
2019-01-22T14:17:58.236Z,0.70
2019-01-22T14:20:26.891Z,0.60
2019-01-22T14:23:02.548Z,0.60
2019-01-22T14:25:25.828Z,0.60
2019-01-22T14:27:54.485Z,0.50
2019-01-22T14:30:27.104Z,0.50
2019-01-22T14:32:55.864Z,0.40
2019-01-22T14:35:24.536Z,0.40
2019-01-22T14:37:53.719Z,0.40
2019-01-22T14:40:22.565Z,0.30
2019-01-22T14:42:51.176Z,0.30
2019-01-22T14:45:19.983Z,0.30
2019-01-22T14:47:48.690Z,0.30
2019-01-22T14:50:18.336Z,0.30
2019-01-22T14:52:47.114Z,0.20
2019-01-22T14:55:17.288Z,0.20
2019-01-22T14:57:50.544Z,0.20
2019-01-22T15:00:22.896Z,0.20
2019-01-22T15:02:52.954Z,0.90
2019-01-22T15:05:21.595Z,0.10
2019-01-22T15:07:50.293Z,0.00
2019-01-22T15:10:18.923Z,-0.10
2019-01-22T15:12:48.290Z,-0.10
2019-01-22T15:15:17.335Z,-0.20
2019-01-22T15:17:45.964Z,-0.20
2019-01-22T15:20:18.806Z,-0.30
2019-01-22T15:22:51.905Z,-0.30
2019-01-22T15:25:20.715Z,-0.40
2019-01-22T15:27:49.395Z,-0.50
2019-01-22T15:30:19.291Z,-0.50
2019-01-22T15:32:48.076Z,-0.50
2019-01-22T15:35:17.954Z,-0.60
2019-01-22T15:37:49.772Z,-0.60
2019-01-22T15:40:19.511Z,-0.70
2019-01-22T15:42:48.919Z,-0.70
2019-01-22T15:45:17.641Z,-0.80
2019-01-22T15:47:46.440Z,-0.80
2019-01-22T15:50:20.667Z,-0.90
2019-01-22T15:52:51.250Z,-0.90
2019-01-22T15:55:26.083Z,-1.00
2019-01-22T15:57:56.435Z,-1.10
2019-01-22T16:00:35.235Z,-1.10
2019-01-22T16:06:21.078Z,-1.20
2019-01-22T16:08:57.962Z,-1.20
2019-01-22T16:11:38.191Z,-1.30
2019-01-22T16:14:06.867Z,-1.30
2019-01-22T16:16:37.501Z,-1.30
2019-01-22T16:19:06.150Z,-1.30
2019-01-22T16:21:38.664Z,-1.30
2019-01-22T16:24:13.683Z,-1.40
2019-01-22T16:26:42.247Z,-1.40
2019-01-22T16:29:17.247Z,-1.50
2019-01-22T16:31:56.506Z,-1.50
2019-01-22T16:34:30.996Z,-1.50
2019-01-22T16:36:59.608Z,-1.50
2019-01-22T16:39:28.208Z,-1.60
2019-01-22T16:41:56.797Z,-1.60
2019-01-22T16:44:25.385Z,-1.70
2019-01-22T16:46:55.650Z,-1.70
2019-01-22T16:49:25.471Z,-1.70
2019-01-22T16:51:55.787Z,-1.80
2019-01-22T16:54:26.022Z,-1.80
2019-01-22T16:57:00.588Z,-1.80
2019-01-22T16:59:31.715Z,-1.80
2019-01-22T17:02:00.345Z,-1.80
2019-01-22T17:04:31.672Z,-1.80
2019-01-22T17:07:01.973Z,-1.80
2019-01-22T17:09:35.234Z,-1.80
2019-01-22T17:12:07.624Z,-1.80
2019-01-22T17:14:35.696Z,-1.80
2019-01-22T17:17:06.114Z,-1.80
2019-01-22T17:19:38.410Z,-1.80
2019-01-22T17:22:07.010Z,-1.80
2019-01-22T17:24:38.299Z,-1.90
2019-01-22T17:27:07.611Z,-1.90
2019-01-22T17:29:38.766Z,-1.90
2019-01-22T17:32:47.889Z,-1.90
2019-01-22T17:38:24.498Z,-1.90
2019-01-22T17:40:57.195Z,-2.00
2019-01-22T17:43:32.780Z,-2.00
2019-01-22T17:46:01.569Z,-2.10
2019-01-22T17:48:31.872Z,-2.10
2019-01-22T17:51:16.709Z,-2.10
2019-01-22T17:53:50.387Z,-2.20
2019-01-22T17:56:24.305Z,-2.10
2019-01-22T17:58:53.098Z,-2.20
2019-01-22T18:01:23.157Z,-2.20
2019-01-22T18:03:52.264Z,-2.20
2019-01-22T18:06:22.804Z,-2.20
2019-01-22T18:08:51.632Z,-2.30
2019-01-22T18:11:23.853Z,-2.30
2019-01-22T18:13:55.603Z,-2.30
2019-01-22T18:16:24.460Z,-2.40
2019-01-22T18:19:02.215Z,-2.40
2019-01-22T18:21:33.765Z,-2.40
2019-01-22T18:24:04.351Z,-2.40
2019-01-22T18:26:32.940Z,-2.30
2019-01-22T18:29:01.520Z,-2.40
2019-01-22T18:31:30.176Z,-2.40
2019-01-22T18:33:58.910Z,-2.40
2019-01-22T18:36:28.508Z,-2.50
2019-01-22T18:38:57.053Z,-2.50
2019-01-22T18:41:25.616Z,-2.50
2019-01-22T18:43:54.181Z,-2.50
2019-01-22T18:46:22.728Z,-2.50
2019-01-22T18:48:51.354Z,-2.60
2019-01-22T18:51:19.877Z,-2.60
2019-01-22T18:53:48.486Z,-2.60
2019-01-22T18:56:17.019Z,-2.60
2019-01-22T18:58:51.067Z,-2.60
2019-01-22T19:01:19.809Z,-2.60
2019-01-22T19:03:48.381Z,-2.60
2019-01-22T19:06:16.942Z,-2.70
2019-01-22T19:08:45.455Z,-2.70
2019-01-22T19:11:14.040Z,-2.70
2019-01-22T19:13:42.602Z,-2.70
2019-01-22T19:16:11.299Z,-2.70
2019-01-22T19:18:39.867Z,-2.70
2019-01-22T19:23:39.165Z,-2.70
2019-01-22T19:26:08.203Z,-2.70
2019-01-22T19:30:21.764Z,-2.70
2019-01-22T19:32:50.821Z,-2.70
2019-01-22T19:36:21.679Z,-2.80
2019-01-22T19:38:51.594Z,-2.80
2019-01-22T19:41:20.800Z,-2.90
2019-01-22T19:45:42.642Z,-2.90
2019-01-22T19:48:14.405Z,-2.90
2019-01-22T19:53:31.450Z,-3.00
2019-01-22T19:56:22.562Z,-3.00
2019-01-22T19:58:53.413Z,-3.00
2019-01-22T20:01:24.724Z,-2.90
2019-01-22T20:03:55.552Z,-2.90
2019-01-22T20:06:26.370Z,-3.00
2019-01-22T20:08:57.378Z,-3.00
2019-01-22T20:11:32.499Z,-3.00
2019-01-22T20:14:04.073Z,-3.00
2019-01-22T20:16:35.320Z,-3.00
2019-01-22T20:19:18.889Z,-3.00
2019-01-22T20:21:49.535Z,-3.10
2019-01-22T20:24:20.365Z,-3.00
2019-01-22T20:26:51.031Z,-3.00
2019-01-22T20:29:23.615Z,-3.00
2019-01-22T20:31:56.409Z,-3.10
2019-01-22T20:34:27.763Z,-3.10
2019-01-22T20:37:00.318Z,-3.20
2019-01-22T20:39:30.984Z,-3.30
2019-01-22T20:42:01.674Z,-3.20
2019-01-22T20:44:32.426Z,-3.30
2019-01-22T20:47:04.375Z,-3.30
2019-01-22T20:49:36.751Z,-3.30
2019-01-22T20:52:13.773Z,-3.30
2019-01-22T20:54:52.171Z,-3.20
2019-01-22T20:57:23.001Z,-3.20
2019-01-22T20:59:53.600Z,-3.30
2019-01-22T21:02:24.357Z,-3.30
2019-01-22T21:04:55.052Z,-3.40
2019-01-22T21:07:25.893Z,-3.40
2019-01-22T21:09:58.270Z,-3.40
2019-01-22T21:12:28.827Z,-3.30
2019-01-22T21:14:59.444Z,-3.30
2019-01-22T21:17:30.062Z,-3.30
2019-01-22T21:20:03.252Z,-3.30
2019-01-22T21:22:36.150Z,-3.30
2019-01-22T21:25:08.419Z,-3.30
2019-01-22T21:27:39.099Z,-3.40
2019-01-22T21:30:20.579Z,-3.40
2019-01-22T21:32:51.371Z,-3.40
2019-01-22T21:35:22.154Z,-3.50
2019-01-22T21:37:54.430Z,-3.50
2019-01-22T21:40:28.783Z,-3.50
2019-01-22T21:43:01.651Z,-3.40
2019-01-22T21:45:32.801Z,-3.50
2019-01-22T21:48:04.211Z,-3.50
2019-01-22T21:50:35.027Z,-3.50
2019-01-22T21:53:06.132Z,-3.50
2019-01-22T21:55:39.033Z,-3.50
2019-01-22T21:58:11.971Z,-3.50
2019-01-22T22:00:42.648Z,-3.50
2019-01-22T22:03:13.515Z,-3.50
2019-01-22T22:05:44.438Z,-3.50
2019-01-22T22:08:15.203Z,-3.60
2019-01-22T22:10:47.916Z,-3.60
2019-01-22T22:13:18.953Z,-3.60
2019-01-22T22:15:49.696Z,-3.60
2019-01-22T22:18:20.686Z,-3.50
2019-01-22T22:20:51.316Z,-3.50
2019-01-22T22:23:22.271Z,-3.50
2019-01-22T22:25:52.829Z,-3.60
2019-01-22T22:28:23.362Z,-3.60
2019-01-22T22:30:53.903Z,-3.50
2019-01-22T22:33:24.624Z,-3.50
2019-01-22T22:35:55.265Z,-3.60
2019-01-22T22:38:25.986Z,-3.60
2019-01-22T22:40:56.585Z,-3.60
2019-01-22T22:43:29.120Z,-3.70
2019-01-22T22:45:59.922Z,-3.70
2019-01-22T22:48:30.829Z,-3.70
2019-01-22T22:51:01.498Z,-3.70
2019-01-22T22:53:32.135Z,-3.70
2019-01-22T22:56:02.880Z,-3.70
2019-01-22T22:58:33.488Z,-3.70
2019-01-22T23:01:28.366Z,-3.80
2019-01-22T23:03:59.127Z,-3.80
2019-01-22T23:06:30.301Z,-3.90
2019-01-22T23:09:01.301Z,-3.90
2019-01-22T23:11:32.098Z,-3.90
2019-01-22T23:14:02.696Z,-3.90
2019-01-22T23:16:33.408Z,-3.90
2019-01-22T23:19:04.574Z,-3.80
2019-01-22T23:21:35.333Z,-3.80
2019-01-22T23:24:06.057Z,-3.90
2019-01-22T23:26:36.770Z,-3.90
2019-01-22T23:29:09.720Z,-3.90
2019-01-22T23:31:40.755Z,-3.90
2019-01-22T23:34:11.386Z,-3.90
2019-01-22T23:36:42.247Z,-3.90
2019-01-22T23:39:13.015Z,-4.00
2019-01-22T23:41:43.664Z,-4.00
2019-01-22T23:44:14.641Z,-4.00
2019-01-22T23:46:45.320Z,-4.00
2019-01-22T23:49:16.002Z,-4.00
2019-01-22T23:51:46.630Z,-4.00
2019-01-22T23:54:17.363Z,-4.00
2019-01-22T23:56:48.087Z,-4.10
2019-01-22T23:59:19.250Z,-4.10
